Airport ID:K63S
Update Time (UTC):19/09/2021 05:31
Wind Speed (Knots):0
Wind Direction (Magnetic):20
Temperature (°C):7
Dew Point (°C):6
Humidity (%):93
Altimeter (inHg):29.78
Density Altitude (Feet):
Visibility:10+
Clouds (Hundreds of feet):FEW018 BKN025 BKN034
Present Weather:
METAR:METAR K63S 190530Z AUTO 00000KT 10SM FEW018 BKN025 OVC050 07/06 A2978 RMK A01

The data displayed is for advisory purposes only and is not to be used for flight planning or operations.